Time;durP1;ratioP1;P1;durP2;ratioP2;P2;SDS_P1;SDS_P2;PMS_P1;PMS_P2;Temp;Humidity;BMP_temperature;BMP_pressure;BME280_temperature;BME280_humidity;BME280_pressure;Samples;Min_cycle;Max_cycle;Signal;HPM_P1;HPM_P2
2022/01/27 00:07:36;;;;;;;4.35;2.58;;;;;;;13.22;44.98;97785.88;5133293;27;20027;-35
2022/01/27 00:10:24;;;;;;;3.70;2.53;;;;;;;13.26;45.07;97783.84;5133903;27;20027;-31
2022/01/27 00:12:49;;;;;;;4.65;2.70;;;;;;;13.23;45.11;97788.16;5133716;27;20034;-32
2022/01/27 00:15:16;;;;;;;3.08;2.72;;;;;;;13.25;45.30;97785.81;5133963;27;20106;-31
2022/01/27 00:17:55;;;;;;;4.15;2.70;;;;;;;13.23;45.33;97790.13;5133742;27;20123;-31
2022/01/27 00:20:21;;;;;;;3.75;2.80;;;;;;;13.23;45.11;97796.34;5134378;27;20068;-31
2022/01/27 00:22:46;;;;;;;5.15;3.08;;;;;;;13.26;45.22;97784.63;5133771;27;20023;-31
2022/01/27 00:25:12;;;;;;;3.45;2.70;;;;;;;13.27;44.90;97788.13;5133914;27;20088;-31
2022/01/27 00:27:37;;;;;;;4.63;2.53;;;;;;;13.28;45.02;97806.00;5133952;27;20503;-32
2022/01/27 00:30:06;;;;;;;5.18;2.88;;;;;;;13.24;45.14;97800.59;5133957;27;20423;-31
2022/01/27 00:32:32;;;;;;;5.30;2.67;;;;;;;13.25;45.46;97798.66;5134006;27;20052;-32
2022/01/27 00:34:58;;;;;;;5.60;3.17;;;;;;;13.23;45.44;97790.13;5133826;27;20016;-31
2022/01/27 00:37:24;;;;;;;3.75;2.50;;;;;;;13.19;45.43;97786.69;5133744;27;20050;-31
2022/01/27 00:39:49;;;;;;;4.35;3.05;;;;;;;13.29;44.90;97789.25;5133714;27;20015;-31
2022/01/27 00:42:15;;;;;;;4.35;2.92;;;;;;;13.12;45.32;97787.50;5133651;27;20035;-31
2022/01/27 00:44:40;;;;;;;4.10;3.03;;;;;;;13.20;44.99;97789.00;5133504;27;20083;-32
2022/01/27 00:47:06;;;;;;;4.18;2.42;;;;;;;13.21;45.25;97793.28;5133865;27;20031;-31
2022/01/27 00:49:31;;;;;;;3.67;2.60;;;;;;;13.23;45.24;97793.59;5133824;27;20100;-32
2022/01/27 00:51:59;;;;;;;4.03;2.80;;;;;;;13.17;45.02;97791.75;5133710;27;20027;-31
2022/01/27 00:54:27;;;;;;;4.80;2.90;;;;;;;13.25;44.90;97793.97;5133774;27;20015;-31
2022/01/27 00:57:02;;;;;;;4.88;2.70;;;;;;;13.18;44.78;97793.31;5133768;27;20546;-31
2022/01/27 00:59:40;;;;;;;3.75;3.00;;;;;;;13.16;44.98;97793.72;5133762;27;20420;-31
2022/01/27 01:02:15;;;;;;;3.58;2.80;;;;;;;13.15;45.13;97791.41;5133652;27;20023;-31
2022/01/27 01:04:45;;;;;;;3.92;3.25;;;;;;;13.16;45.00;97788.28;5133441;27;20098;-32
2022/01/27 01:07:12;;;;;;;3.85;2.88;;;;;;;13.10;44.87;97780.94;5134119;27;20019;-31
2022/01/27 01:15:20;;;;;;;5.93;2.85;;;;;;;13.14;45.03;97777.00;5136763;27;20060;-31
2022/01/27 01:33:59;;;;;;;5.40;3.38;;;;;;;13.14;44.63;97777.00;5137463;27;20444;-32
2022/01/27 01:36:44;;;;;;;3.20;2.60;;;;;;;13.09;44.59;97782.91;5136735;27;20051;-32
2022/01/27 01:39:10;;;;;;;5.03;3.05;;;;;;;13.07;44.42;97777.09;5136855;27;20019;-32
2022/01/27 01:41:36;;;;;;;3.58;2.72;;;;;;;13.08;44.38;97778.63;5136738;27;20083;-31
2022/01/27 01:44:03;;;;;;;4.57;3.00;;;;;;;13.10;44.69;97779.00;5136675;27;20027;-31
2022/01/27 01:46:29;;;;;;;4.18;3.10;;;;;;;13.06;44.25;97772.81;5136716;27;20051;-32
2022/01/27 01:48:55;;;;;;;5.70;2.80;;;;;;;13.08;44.33;97781.34;5136731;27;20080;-31
2022/01/27 01:51:26;;;;;;;4.82;3.20;;;;;;;13.08;44.00;97780.59;5135314;27;20023;-32
2022/01/27 01:53:51;;;;;;;6.25;3.25;;;;;;;13.05;44.44;97776.72;5134289;27;20095;-31
2022/01/27 01:56:17;;;;;;;5.15;3.22;;;;;;;13.04;44.27;97772.44;5135289;27;20472;-31
2022/01/27 01:58:42;;;;;;;5.05;2.92;;;;;;;13.07;44.08;97768.16;5136733;27;20115;-32
2022/01/27 02:01:08;;;;;;;6.00;3.28;;;;;;;13.03;44.32;97767.41;5136177;27;20118;-33
2022/01/27 02:03:33;;;;;;;3.88;2.78;;;;;;;13.02;44.20;97766.63;5136526;27;20015;-32
2022/01/27 02:05:59;;;;;;;3.47;2.70;;;;;;;13.03;44.01;97757.28;5136103;27;20023;-31
2022/01/27 02:19:17;;;;;;;5.30;3.17;;;;;;;13.04;43.85;97731.59;5135961;27;20054;-31
2022/01/27 02:21:57;;;;;;;5.07;3.25;;;;;;;13.07;44.04;97733.50;5135840;27;20115;-33
2022/01/27 02:24:25;;;;;;;4.20;2.72;;;;;;;13.06;43.89;97728.47;5135869;27;20023;-32
2022/01/27 02:26:51;;;;;;;5.03;2.88;;;;;;;13.02;44.06;97728.50;5135890;27;20098;-33
2022/01/27 02:29:19;;;;;;;4.68;3.03;;;;;;;13.02;44.30;97723.06;5135696;27;20026;-32
2022/01/27 02:31:45;;;;;;;4.03;3.03;;;;;;;13.04;44.05;97720.72;5135739;27;20041;-31
2022/01/27 02:34:11;;;;;;;5.38;3.67;;;;;;;13.03;44.15;97713.72;5135636;27;20031;-31
2022/01/27 02:36:36;;;;;;;3.85;2.65;;;;;;;13.01;43.91;97713.34;5135702;27;20072;-31
2022/01/27 02:39:07;;;;;;;3.50;2.97;;;;;;;13.02;43.95;97701.28;5136018;27;20038;-32
2022/01/27 02:42:11;;;;;;;3.70;2.58;;;;;;;12.99;44.16;97702.09;5135563;27;20023;-31
2022/01/27 02:44:45;;;;;;;;;;;;;;;12.95;44.30;97701.41;5119991;27;20039;-32
2022/01/27 02:47:12;;;;;;;5.57;2.80;;;;;;;12.99;44.36;97702.09;5135559;27;19915;-31
2022/01/27 02:49:38;;;;;;;3.80;2.75;;;;;;;12.97;44.35;97703.72;5135513;27;20102;-31
2022/01/27 02:52:03;;;;;;;3.55;2.58;;;;;;;13.00;44.37;97711.03;5135336;27;20023;-31
2022/01/27 02:54:29;;;;;;;3.63;2.80;;;;;;;12.98;44.73;97706.03;5135262;27;20023;-31
2022/01/27 02:56:54;;;;;;;5.55;3.03;;;;;;;12.96;44.57;97708.38;5135333;27;20384;-32
2022/01/27 02:59:21;;;;;;;3.75;2.58;;;;;;;13.01;44.08;97710.63;5135252;27;20025;-31
2022/01/27 03:01:48;;;;;;;5.78;3.10;;;;;;;13.02;44.43;97711.41;5135088;27;20023;-32
2022/01/27 03:04:14;;;;;;;3.72;2.97;;;;;;;12.98;44.10;97706.03;5135313;27;20364;-31
2022/01/27 03:06:40;;;;;;;5.07;2.90;;;;;;;13.00;44.16;97714.53;5134882;27;20023;-31
2022/01/27 03:09:06;;;;;;;4.63;2.97;;;;;;;13.01;44.29;97713.34;5135056;27;20027;-31
2022/01/27 03:11:56;;;;;;;5.65;3.15;;;;;;;12.94;44.52;97718.91;5134958;27;20023;-31
2022/01/27 03:14:23;;;;;;;4.15;2.58;;;;;;;12.91;44.18;97720.50;5135142;27;20056;-32
2022/01/27 03:16:52;;;;;;;4.03;2.80;;;;;;;12.94;44.20;97724.34;5134945;27;20485;-32
2022/01/27 03:19:17;;;;;;;4.35;2.53;;;;;;;12.93;44.34;97723.59;5134923;27;20506;-31
2022/01/27 03:21:43;;;;;;;3.45;2.58;;;;;;;12.93;44.25;97730.97;5134616;27;20102;-33
2022/01/27 03:24:08;;;;;;;3.85;2.67;;;;;;;12.88;44.52;97724.03;5134865;27;20379;-31
2022/01/27 03:26:34;;;;;;;3.72;2.60;;;;;;;12.91;44.15;97727.88;5134658;27;20019;-31
2022/01/27 03:29:00;;;;;;;3.95;2.45;;;;;;;13.01;44.05;97721.53;5134925;27;20383;-31
2022/01/27 03:31:26;;;;;;;4.35;2.83;;;;;;;12.91;43.95;97722.44;5134369;27;20030;-32
2022/01/27 03:33:51;;;;;;;3.75;2.75;;;;;;;12.92;43.81;97722.03;5134624;27;20027;-32
2022/01/27 03:36:17;;;;;;;4.90;2.80;;;;;;;12.95;44.00;97739.50;5133988;27;20106;-32
2022/01/27 03:38:43;;;;;;;4.63;2.45;;;;;;;12.91;43.86;97736.06;5134394;27;20023;-32
2022/01/27 03:41:10;;;;;;;3.83;2.50;;;;;;;12.99;43.76;97736.72;5134417;27;20080;-31
2022/01/27 03:43:38;;;;;;;4.07;2.85;;;;;;;12.92;43.68;97734.88;5134618;27;20095;-32
2022/01/27 03:46:05;;;;;;;3.47;2.60;;;;;;;12.92;43.51;97735.66;5134318;27;20023;-31
2022/01/27 03:48:31;;;;;;;4.05;3.10;;;;;;;12.88;43.57;97732.19;5134578;27;20536;-32
2022/01/27 03:50:56;;;;;;;4.82;2.92;;;;;;;12.92;43.81;97740.34;5134260;27;20035;-32
2022/01/27 03:53:22;;;;;;;4.72;2.97;;;;;;;12.92;43.83;97743.06;5134369;27;20029;-32
2022/01/27 03:55:48;;;;;;;5.45;2.85;;;;;;;12.94;43.67;97736.03;5134364;27;20061;-31
2022/01/27 03:58:14;;;;;;;3.60;2.35;;;;;;;12.91;44.01;97733.34;5134184;27;20467;-32
2022/01/27 04:00:39;;;;;;;3.80;2.55;;;;;;;12.90;43.83;97734.50;5134278;27;20360;-32
2022/01/27 04:03:08;;;;;;;4.32;2.60;;;;;;;12.91;43.40;97738.78;5115560;28;20043;-32
2022/01/27 04:05:41;;;;;;;4.35;2.90;;;;;;;12.91;43.34;97744.22;5134290;27;20019;-31
2022/01/27 04:08:09;;;;;;;5.13;2.80;;;;;;;12.93;43.50;97736.44;5134469;27;20027;-31
2022/01/27 04:10:35;;;;;;;4.25;3.10;;;;;;;12.89;43.91;97735.69;5134099;28;20027;-31
2022/01/27 04:13:01;;;;;;;4.38;2.88;;;;;;;12.88;43.83;97743.09;5115824;28;20054;-31
2022/01/27 04:15:27;;;;;;;5.18;2.67;;;;;;;12.91;43.66;97741.50;5133998;28;20019;-32
2022/01/27 04:17:53;;;;;;;3.80;2.63;;;;;;;12.88;43.73;97742.31;5133842;28;20066;-31
2022/01/27 04:20:19;;;;;;;3.90;2.53;;;;;;;12.92;43.41;97740.34;5133967;28;20027;-31
2022/01/27 04:22:44;;;;;;;3.85;2.63;;;;;;;12.91;43.36;97744.22;5133962;28;20023;-32
2022/01/27 04:25:11;;;;;;;3.63;3.03;;;;;;;12.90;43.30;97751.63;5133849;28;20019;-31
2022/01/27 04:27:40;;;;;;;4.47;3.00;;;;;;;12.84;43.65;97757.94;5133897;28;20030;-31
2022/01/27 04:30:11;;;;;;;3.65;2.78;;;;;;;12.90;43.55;97754.34;5134048;28;20535;-32
2022/01/27 04:32:43;;;;;;;4.05;3.08;;;;;;;12.90;43.67;97751.63;5133990;28;20072;-32
2022/01/27 04:35:13;;;;;;;4.80;2.83;;;;;;;12.86;43.46;97750.13;5134164;28;20027;-32
2022/01/27 04:37:43;;;;;;;3.92;2.75;;;;;;;12.87;43.89;97757.09;5133857;28;20023;-31
2022/01/27 04:40:15;;;;;;;4.28;3.22;;;;;;;12.84;43.47;97757.94;5133870;28;20038;-35
2022/01/27 04:45:08;;;;;;;5.05;3.28;;;;;;;12.87;43.32;97766.06;5134028;28;20031;-31
2022/01/27 04:47:39;;;;;;;3.97;2.65;;;;;;;12.91;43.29;97768.75;5133717;27;20486;-32
2022/01/27 04:50:05;;;;;;;5.30;3.08;;;;;;;12.75;43.90;97760.38;5136932;27;20386;-32
2022/01/27 04:52:35;;;;;;;3.72;2.92;;;;;;;12.81;43.66;97764.22;5137979;27;20102;-32
2022/01/27 04:55:08;;;;;;;4.38;2.72;;;;;;;12.80;43.87;97768.88;5137488;27;20068;-31
2022/01/27 04:57:36;;;;;;;4.82;2.85;;;;;;;12.86;43.74;97774.63;5137721;27;20025;-32
2022/01/27 05:00:03;;;;;;;3.97;3.13;;;;;;;12.82;43.54;97773.91;5137731;27;20025;-31
2022/01/27 05:03:10;;;;;;;5.47;3.08;;;;;;;12.86;43.88;97769.19;5137631;27;20103;-32
2022/01/27 05:05:21;;;;;;;3.88;2.83;;;;;;;12.81;43.53;97753.31;5134042;27;20563;-32
2022/01/27 05:07:54;;;;;;;5.32;3.15;;;;;;;12.80;43.47;97749.81;5137282;27;20031;-31
2022/01/27 05:10:23;;;;;;;4.95;3.10;;;;;;;12.82;43.68;97746.69;5137681;27;20050;-31
2022/01/27 05:12:51;;;;;;;4.65;3.25;;;;;;;12.80;43.72;97755.25;5137228;27;20065;-31
2022/01/27 05:15:18;;;;;;;4.40;3.13;;;;;;;12.83;43.63;97753.69;5137242;27;20023;-31
2022/01/27 05:17:43;;;;;;;4.03;2.90;;;;;;;12.82;43.55;97752.91;5136975;27;20050;-31
2022/01/27 05:20:10;;;;;;;4.18;3.20;;;;;;;12.82;43.68;97742.03;5137062;27;20019;-31
2022/01/27 05:22:35;;;;;;;4.85;2.95;;;;;;;12.77;43.88;97744.41;5137260;27;20031;-32
2022/01/27 05:25:01;;;;;;;5.57;3.63;;;;;;;12.82;43.64;97752.91;5137190;27;20030;-31
2022/01/27 05:27:26;;;;;;;4.32;3.63;;;;;;;12.77;43.65;97758.03;5137248;27;20459;-31
2022/01/27 05:29:52;;;;;;;5.28;3.60;;;;;;;12.73;43.81;97754.59;5136907;27;20023;-31
2022/01/27 05:32:19;;;;;;;5.72;4.03;;;;;;;12.81;43.90;97753.31;5136975;27;20023;-31
2022/01/27 05:34:44;;;;;;;4.97;3.03;;;;;;;12.84;43.73;97757.94;5136895;27;20022;-31
2022/01/27 05:37:10;;;;;;;4.75;3.88;;;;;;;12.81;43.82;97761.47;5136816;27;20057;-32
2022/01/27 05:39:35;;;;;;;5.10;3.40;;;;;;;12.79;43.62;97759.16;5136712;27;20027;-32
2022/01/27 05:42:01;;;;;;;3.60;3.03;;;;;;;12.85;43.68;97762.22;5136737;27;20023;-31
2022/01/27 05:44:26;;;;;;;5.78;3.70;;;;;;;12.79;44.05;97752.94;5136563;27;20027;-30
2022/01/27 05:46:52;;;;;;;7.15;3.60;;;;;;;12.81;43.49;97754.09;5136710;27;20061;-32
2022/01/27 05:49:17;;;;;;;4.75;3.30;;;;;;;12.81;43.63;97762.25;5136772;27;20386;-31
2022/01/27 05:51:43;;;;;;;5.05;3.65;;;;;;;12.87;43.69;97768.00;5136511;27;20098;-31
2022/01/27 05:54:10;;;;;;;5.47;3.97;;;;;;;12.81;43.87;97783.25;5118110;27;20470;-32
2022/01/27 05:56:36;;;;;;;5.03;3.72;;;;;;;12.77;43.78;97788.75;5136408;27;20088;-31
2022/01/27 05:59:02;;;;;;;5.03;3.67;;;;;;;12.80;44.16;97787.94;5136625;27;20046;-32
2022/01/27 06:01:28;;;;;;;5.38;3.55;;;;;;;12.77;44.08;97796.13;5136092;27;20015;-33
2022/01/27 06:03:54;;;;;;;4.82;3.50;;;;;;;12.82;43.93;97798.41;5136336;27;20102;-32
2022/01/27 06:06:19;;;;;;;6.57;3.78;;;;;;;12.82;44.04;97803.88;5136289;27;20098;-31
2022/01/27 06:08:45;;;;;;;4.70;3.50;;;;;;;12.78;44.13;97800.41;5136349;27;20027;-32
2022/01/27 06:11:11;;;;;;;4.25;3.22;;;;;;;12.82;44.21;97795.69;5136243;27;20023;-32
2022/01/27 06:13:36;;;;;;;4.35;3.45;;;;;;;12.85;44.05;97794.88;5117702;27;20052;-31
2022/01/27 06:16:08;;;;;;;4.95;3.67;;;;;;;12.79;43.95;97801.94;5136187;27;20011;-32
2022/01/27 06:18:34;;;;;;;5.28;3.90;;;;;;;12.74;43.92;97805.09;5135936;27;20051;-31
2022/01/27 06:21:03;;;;;;;5.07;3.67;;;;;;;12.76;43.91;97798.09;5136259;27;20019;-32
2022/01/27 06:23:28;;;;;;;5.65;3.90;;;;;;;12.75;44.40;97793.03;5135997;27;20022;-32
2022/01/27 06:25:54;;;;;;;6.00;3.75;;;;;;;12.81;43.91;97791.44;5135671;27;20072;-31
2022/01/27 06:28:19;;;;;;;4.97;3.90;;;;;;;12.76;44.18;97780.97;5135878;27;20027;-32
2022/01/27 06:30:45;;;;;;;5.82;4.18;;;;;;;12.72;44.32;97796.59;5135845;27;20079;-32
2022/01/27 06:33:10;;;;;;;5.10;4.03;;;;;;;12.76;44.17;97803.53;5135681;27;20069;-32
2022/01/27 06:35:37;;;;;;;6.05;4.05;;;;;;;12.79;43.91;97810.88;5135935;27;20030;-31
2022/01/27 06:38:04;;;;;;;5.15;3.78;;;;;;;12.80;44.32;97831.50;5133327;27;20046;-31
2022/01/27 06:40:29;;;;;;;6.70;3.83;;;;;;;12.77;44.04;97826.84;5113083;27;20031;-31
2022/01/27 06:42:55;;;;;;;6.57;4.70;;;;;;;12.79;44.50;97831.88;5112960;28;20080;-32
2022/01/27 06:45:21;;;;;;;8.05;4.65;;;;;;;12.71;44.63;97828.50;5110985;28;20059;-32
2022/01/27 06:47:47;;;;;;;7.28;4.88;;;;;;;12.73;44.51;97834.31;5112766;28;20027;-31
2022/01/27 06:50:13;;;;;;;6.20;4.72;;;;;;;12.78;44.45;97833.06;5112518;28;20024;-32
2022/01/27 06:52:39;;;;;;;6.13;5.15;;;;;;;12.79;44.36;97835.38;5112879;28;20115;-31
2022/01/27 06:55:05;;;;;;;6.70;4.57;;;;;;;12.74;44.31;97826.88;5112279;28;20035;-31
2022/01/27 06:57:33;;;;;;;6.93;5.07;;;;;;;12.79;44.78;97831.88;5112520;28;20141;-32
2022/01/27 06:59:58;;;;;;;6.18;4.78;;;;;;;12.72;44.33;97831.97;5112677;28;20023;-32
2022/01/27 07:02:24;;;;;;;6.00;4.57;;;;;;;12.70;44.53;97828.91;5112280;28;20088;-32
2022/01/27 07:04:49;;;;;;;6.88;4.80;;;;;;;12.74;44.39;97829.59;5112473;28;20525;-31
2022/01/27 07:07:16;;;;;;;6.93;4.82;;;;;;;12.72;44.51;97835.47;5112602;28;20058;-31
2022/01/27 07:09:42;;;;;;;8.48;5.07;;;;;;;12.70;44.81;97842.50;5112420;28;20016;-31
2022/01/27 07:12:08;;;;;;;7.18;5.20;;;;;;;12.65;45.06;97841.00;5111418;28;20023;-32
2022/01/27 07:14:34;;;;;;;6.10;5.00;;;;;;;12.79;44.34;97850.94;5111887;28;20495;-32
2022/01/27 07:17:00;;;;;;;7.70;5.20;;;;;;;12.75;44.63;97845.53;5112318;28;20032;-31
2022/01/27 07:19:26;;;;;;;8.07;4.80;;;;;;;12.75;44.81;97852.94;5112219;28;20108;-31
2022/01/27 07:21:51;;;;;;;5.97;4.63;;;;;;;12.70;45.14;97853.41;5112261;28;20310;-31
2022/01/27 07:24:17;;;;;;;7.40;5.28;;;;;;;12.74;44.96;97854.09;5112116;28;20098;-31
2022/01/27 07:26:42;;;;;;;6.88;5.38;;;;;;;12.69;45.14;97846.41;5111804;28;20392;-31
2022/01/27 07:29:07;;;;;;;7.00;5.13;;;;;;;12.76;45.12;97851.75;5111969;28;20088;-31
2022/01/27 07:31:33;;;;;;;9.13;6.38;;;;;;;12.78;45.15;97861.06;5112020;28;20026;-32
2022/01/27 07:33:58;;;;;;;9.55;6.65;;;;;;;12.72;45.30;97853.75;5111735;28;20028;-31
2022/01/27 07:36:24;;;;;;;8.27;6.65;;;;;;;12.77;45.07;97858.75;5111665;28;20043;-31
2022/01/27 07:38:50;;;;;;;10.73;6.78;;;;;;;12.74;45.07;97868.50;5101821;28;20088;-32
2022/01/27 07:41:17;;;;;;;9.43;7.00;;;;;;;12.79;45.05;97861.84;5132230;27;20023;-31
2022/01/27 07:43:44;;;;;;;8.68;7.18;;;;;;;12.76;44.84;97857.97;5132469;27;20027;-31
2022/01/27 07:46:13;;;;;;;8.98;6.82;;;;;;;12.75;45.10;97866.53;5130605;27;20486;-31
2022/01/27 07:48:42;;;;;;;8.80;7.05;;;;;;;12.72;45.36;97861.94;5132431;27;20035;-32
2022/01/27 07:51:09;;;;;;;10.55;7.05;;;;;;;12.74;45.23;97871.22;5132015;27;20463;-31
2022/01/27 07:53:36;;;;;;;10.88;7.70;;;;;;;12.73;45.17;97877.09;5113687;27;20023;-31
2022/01/27 07:56:03;;;;;;;9.88;7.57;;;;;;;12.71;45.39;97874.00;5132204;27;20019;-32
2022/01/27 07:58:32;;;;;;;10.20;7.68;;;;;;;12.76;45.43;97870.81;5132309;27;20030;-31
2022/01/27 08:00:58;;;;;;;12.30;7.70;;;;;;;12.80;45.01;97868.81;5132249;27;20102;-31
2022/01/27 08:03:24;;;;;;;11.55;7.75;;;;;;;12.73;45.18;97872.41;5132077;27;20390;-31
2022/01/27 08:05:50;;;;;;;11.10;7.03;;;;;;;12.75;45.41;97877.44;5132184;27;20038;-31
2022/01/27 08:08:16;;;;;;;10.90;7.30;;;;;;;12.77;45.23;97880.53;5132172;27;20126;-31
2022/01/27 08:10:41;;;;;;;10.68;7.00;;;;;;;12.74;45.28;97881.31;5132122;28;20109;-31
2022/01/27 08:13:10;;;;;;;9.10;6.65;;;;;;;12.69;45.73;97887.22;5120194;28;20102;-31
2022/01/27 08:15:35;;;;;;;11.77;7.95;;;;;;;11.83;49.04;97884.47;5113437;28;20118;-31
2022/01/27 08:18:02;;;;;;;12.38;9.25;;;;;;;12.16;48.55;97885.75;5113252;28;20122;-31
2022/01/27 08:20:27;;;;;;;10.77;8.27;;;;;;;12.27;48.00;97881.00;5113805;28;20427;-31
2022/01/27 08:22:54;;;;;;;12.10;9.35;;;;;;;12.47;47.29;97884.72;5114649;28;20019;-31
2022/01/27 08:25:22;;;;;;;11.82;8.63;;;;;;;12.61;46.94;97883.78;5131751;27;20020;-31
2022/01/27 08:27:51;;;;;;;9.90;8.15;;;;;;;12.67;46.75;97889.56;5138032;27;20035;-31
2022/01/27 08:30:18;;;;;;;12.88;8.32;;;;;;;12.65;46.50;97872.88;5137645;27;20340;-32
2022/01/27 08:33:05;;;;;;;10.93;8.55;;;;;;;12.63;46.86;97880.66;5137890;27;20015;-31
2022/01/27 08:35:31;;;;;;;11.55;8.82;;;;;;;12.65;46.82;97878.31;5138462;27;20027;-31
2022/01/27 08:37:56;;;;;;;9.80;7.93;;;;;;;12.67;46.21;97875.97;5137758;27;20529;-31
2022/01/27 08:40:22;;;;;;;10.52;8.25;;;;;;;12.67;46.36;97881.41;5137891;27;20021;-31
2022/01/27 08:42:48;;;;;;;10.48;8.00;;;;;;;12.63;46.90;97884.16;5137901;27;20356;-31
2022/01/27 08:45:15;;;;;;;9.93;7.22;;;;;;;12.65;46.30;97878.31;5137615;27;20030;-31
2022/01/27 08:47:43;;;;;;;10.65;8.02;;;;;;;12.71;46.46;97876.72;5137945;27;20474;-32
2022/01/27 08:50:11;;;;;;;8.93;7.38;;;;;;;12.72;46.43;97889.16;5137739;27;20023;-31
2022/01/27 08:52:37;;;;;;;10.13;7.43;;;;;;;12.71;46.07;97890.31;5137839;27;20149;-31
2022/01/27 08:55:07;;;;;;;9.80;7.22;;;;;;;12.72;46.38;97895.38;5137810;27;20444;-31
2022/01/27 08:57:33;;;;;;;8.65;6.75;;;;;;;12.67;46.46;97903.19;5136780;27;20397;-31
2022/01/27 09:00:01;;;;;;;8.48;6.60;;;;;;;12.75;46.30;97899.22;5136976;27;20023;-31
2022/01/27 09:02:27;;;;;;;8.85;5.78;;;;;;;12.73;46.53;97896.91;5137538;27;20019;-31
2022/01/27 09:04:52;;;;;;;8.48;6.22;;;;;;;12.63;46.83;97905.16;5137180;27;20530;-31
2022/01/27 09:07:18;;;;;;;8.32;6.18;;;;;;;12.75;46.37;97902.69;5136436;27;20490;-32
2022/01/27 09:09:44;;;;;;;7.93;6.03;;;;;;;12.73;46.43;97907.81;5131854;27;20035;-31
2022/01/27 09:12:11;;;;;;;11.48;6.20;;;;;;;12.71;46.81;97917.53;5116889;28;20020;-31
2022/01/27 09:14:38;;;;;;;9.15;5.97;;;;;;;12.71;46.34;97914.81;5119791;27;20046;-31
2022/01/27 09:17:05;;;;;;;7.32;5.57;;;;;;;12.83;45.90;97911.59;5134997;27;20023;-31
2022/01/27 09:19:31;;;;;;;8.10;5.97;;;;;;;12.83;46.32;97919.75;5137286;27;20479;-31
2022/01/27 09:21:57;;;;;;;8.60;5.75;;;;;;;12.81;46.45;97919.38;5135741;27;20408;-31
2022/01/27 09:24:28;;;;;;;8.90;6.40;;;;;;;12.73;46.53;97931.53;5118369;27;20019;-31
2022/01/27 09:27:00;;;;;;;10.18;6.45;;;;;;;12.69;47.25;97928.06;5130645;27;20034;-31
2022/01/27 09:29:27;;;;;;;8.80;6.47;;;;;;;12.78;46.77;97920.97;5134975;27;20406;-31
2022/01/27 09:31:53;;;;;;;10.35;6.65;;;;;;;12.80;46.38;97923.28;5134523;27;20031;-32
2022/01/27 09:34:19;;;;;;;9.57;5.50;;;;;;;12.64;47.37;97920.31;5115297;27;20471;-32
2022/01/27 09:36:49;;;;;;;7.63;5.57;;;;;;;12.77;46.70;97913.97;5134431;27;20116;-31
2022/01/27 09:39:15;;;;;;;11.32;6.53;;;;;;;12.80;46.91;97918.59;5134984;27;20034;-32
2022/01/27 09:41:42;;;;;;;9.32;5.43;;;;;;;12.74;46.76;97919.44;5134944;27;20023;-31
2022/01/27 09:44:11;;;;;;;10.10;5.50;;;;;;;12.74;47.28;97919.44;5136959;27;20027;-32
2022/01/27 09:46:40;;;;;;;10.05;5.50;;;;;;;12.75;47.33;97915.53;5136343;27;20054;-31
2022/01/27 09:49:12;;;;;;;9.32;5.43;;;;;;;12.69;47.13;97911.72;5136769;27;20045;-31
2022/01/27 09:51:41;;;;;;;8.50;5.70;;;;;;;12.73;47.16;97907.03;5116779;27;20035;-31
2022/01/27 09:54:07;;;;;;;8.13;5.45;;;;;;;12.81;47.16;97911.22;5134879;27;20015;-32
2022/01/27 09:56:34;;;;;;;9.73;5.93;;;;;;;12.62;47.79;97903.63;5136741;27;20024;-32
2022/01/27 09:59:00;;;;;;;8.00;5.20;;;;;;;12.73;47.47;97912.47;5136598;27;20015;-32
2022/01/27 10:01:26;;;;;;;8.27;5.13;;;;;;;12.80;47.04;97894.09;5118336;27;20425;-31
2022/01/27 10:03:59;;;;;;;7.13;4.80;;;;;;;12.73;47.43;97887.97;5136627;27;20056;-33
2022/01/27 10:06:29;;;;;;;7.38;5.35;;;;;;;12.68;47.76;97891.91;5136331;27;20107;-31
2022/01/27 10:09:19;;;;;;;9.23;5.00;;;;;;;12.70;47.09;97891.50;5136415;27;20080;-31
2022/01/27 10:11:47;;;;;;;8.75;5.07;;;;;;;12.73;47.74;97885.25;5135985;27;20047;-31
2022/01/27 10:14:26;;;;;;;9.15;4.93;;;;;;;12.65;47.49;97889.22;5136187;27;20526;-32
2022/01/27 10:16:55;;;;;;;7.60;4.38;;;;;;;12.74;46.69;97881.31;5133172;27;20386;-31
2022/01/27 10:19:21;;;;;;;8.77;5.47;;;;;;;12.77;46.83;97880.53;5135951;27;20564;-32
2022/01/27 10:21:47;;;;;;;8.75;5.05;;;;;;;12.78;47.05;97888.28;5135553;27;20031;-32
2022/01/27 10:24:26;;;;;;;7.40;4.93;;;;;;;12.81;46.67;97887.50;5136077;27;20030;-32
2022/01/27 10:27:18;;;;;;;8.50;4.97;;;;;;;12.79;47.01;97884.38;5135644;27;20435;-31
2022/01/27 10:32:44;;;;;;;10.82;6.03;;;;;;;12.71;48.03;97872.03;5110730;27;20058;-31
2022/01/27 10:35:12;;;;;;;10.13;6.68;;;;;;;12.53;49.08;97874.16;5135365;27;20025;-32
2022/01/27 10:37:56;;;;;;;9.93;5.65;;;;;;;12.70;47.78;97883.34;5135458;27;20031;-31
2022/01/27 10:40:35;;;;;;;8.40;5.88;;;;;;;12.74;47.49;97879.38;5135683;27;20093;-31
2022/01/27 10:43:20;;;;;;;9.52;5.45;;;;;;;12.45;48.97;97878.91;5135595;27;20023;-31
2022/01/27 10:48:51;;;;;;;8.30;5.22;;;;;;;12.66;47.58;97877.91;5135781;27;20088;-32
2022/01/27 10:51:38;;;;;;;9.30;4.88;;;;;;;12.74;47.24;97873.94;5135699;27;20431;-31
2022/01/27 10:54:05;;;;;;;7.80;4.95;;;;;;;12.73;47.34;97872.41;5135374;27;20020;-32
2022/01/27 10:56:36;;;;;;;9.85;5.18;;;;;;;12.76;47.13;97874.31;5135309;27;20019;-32
2022/01/27 10:59:05;;;;;;;6.90;5.43;;;;;;;12.72;47.18;97872.81;5135494;27;20066;-32
2022/01/27 11:01:36;;;;;;;6.95;4.55;;;;;;;12.66;47.70;97877.16;5135112;27;20023;-31
2022/01/27 11:04:05;;;;;;;7.32;4.10;;;;;;;12.72;47.13;97878.25;5135207;27;20187;-31
2022/01/27 11:06:33;;;;;;;7.85;4.70;;;;;;;12.79;47.12;97880.91;5134926;27;20019;-32
2022/01/27 11:09:03;;;;;;;6.90;4.30;;;;;;;12.78;47.07;97869.22;5135118;27;20020;-31
2022/01/27 11:11:28;;;;;;;6.70;4.13;;;;;;;12.73;47.31;97866.97;5134776;27;20019;-33
2022/01/27 11:13:55;;;;;;;5.80;4.00;;;;;;;12.72;47.61;97864.66;5134947;27;20463;-32
2022/01/27 11:16:28;;;;;;;7.60;5.05;;;;;;;12.70;47.17;97859.59;5134813;27;20015;-31
2022/01/27 11:19:01;;;;;;;6.72;4.38;;;;;;;12.77;46.98;97859.53;5134725;27;20185;-31
2022/01/27 11:21:35;;;;;;;6.38;4.22;;;;;;;12.81;47.33;97859.50;5134907;27;20026;-31
2022/01/27 11:24:15;;;;;;;7.45;4.60;;;;;;;12.78;47.12;97855.63;5134738;27;20019;-31
2022/01/27 11:26:43;;;;;;;5.80;4.05;;;;;;;12.83;46.83;97854.41;5134846;27;20023;-32
2022/01/27 11:29:09;;;;;;;6.40;4.80;;;;;;;12.80;47.04;97861.44;5134835;27;20030;-31
2022/01/27 11:32:16;;;;;;;6.93;4.38;;;;;;;12.78;46.94;97863.00;5135075;27;20482;-31
2022/01/27 11:34:52;;;;;;;8.48;4.40;;;;;;;12.72;47.39;97859.97;5134677;27;20050;-31
2022/01/27 11:37:33;;;;;;;6.05;4.22;;;;;;;12.82;46.79;97861.03;5134905;27;20394;-31
2022/01/27 11:40:11;;;;;;;6.00;3.97;;;;;;;12.76;47.14;97862.66;5134388;27;20031;-31
2022/01/27 11:42:40;;;;;;;8.65;5.07;;;;;;;12.72;47.26;97851.81;5132479;27;20078;-31
2022/01/27 11:45:21;;;;;;;6.85;4.65;;;;;;;12.62;47.84;97854.63;5132830;27;20146;-31
2022/01/27 11:47:52;;;;;;;11.48;4.70;;;;;;;12.70;47.27;97850.66;5134411;27;20023;-32
2022/01/27 11:50:39;;;;;;;9.00;5.10;;;;;;;12.70;47.35;97846.00;5134491;27;20028;-33
2022/01/27 11:53:06;;;;;;;7.18;4.90;;;;;;;12.76;47.03;97838.16;5134432;27;20066;-31
2022/01/27 11:55:44;;;;;;;8.90;5.30;;;;;;;12.80;47.56;97836.16;5134226;27;20042;-32
2022/01/27 11:58:23;;;;;;;8.63;5.40;;;;;;;12.45;48.85;97832.66;5134155;27;20025;-31
2022/01/27 12:01:07;;;;;;;7.32;4.88;;;;;;;12.74;47.26;97837.78;5134232;27;20019;-32
2022/01/27 12:03:34;;;;;;;6.38;4.95;;;;;;;12.84;47.14;97821.34;5134651;27;20030;-32
2022/01/27 12:06:19;;;;;;;7.57;5.20;;;;;;;12.89;46.87;97822.81;5134314;27;20060;-31
2022/01/27 12:08:45;;;;;;;8.82;5.22;;;;;;;12.95;46.47;97821.22;5134232;27;20019;-31
2022/01/27 12:11:41;;;;;;;8.60;5.10;;;;;;;12.91;47.35;97818.53;5134198;27;20106;-31
2022/01/27 12:14:07;;;;;;;25.15;13.80;;;;;;;12.68;48.75;97814.91;5115933;28;20372;-32
2022/01/27 12:19:08;;;;;;;8.27;5.65;;;;;;;12.76;47.57;97800.81;5133976;27;20039;-31
2022/01/27 12:21:45;;;;;;;9.38;5.28;;;;;;;12.76;47.28;97808.19;5134133;27;20463;-31
2022/01/27 12:24:15;;;;;;;9.57;6.18;;;;;;;12.76;46.99;97808.19;5134363;27;20028;-31
2022/01/27 12:26:45;;;;;;;8.35;5.28;;;;;;;12.65;47.77;97796.66;5133985;27;20147;-31
2022/01/27 12:29:11;;;;;;;11.20;7.47;;;;;;;12.71;48.75;97804.00;5115399;28;20045;-31